createdAt,value
2023-04-12T00:02:22.107Z,78.57
2023-04-12T00:04:55.309Z,77.82
2023-04-12T00:07:24.820Z,81.13
2023-04-12T00:09:51.898Z,78.81
2023-04-12T00:12:19.629Z,80.99
2023-04-12T00:14:47.337Z,82.87
2023-04-12T00:17:14.151Z,84.06
2023-04-12T00:19:41.820Z,86.67
2023-04-12T00:22:09.713Z,87.79
2023-04-12T00:24:41.084Z,90.04
2023-04-12T00:27:08.552Z,90.25
2023-04-12T00:29:35.444Z,90.26
2023-04-12T00:32:03.733Z,89.58
2023-04-12T00:34:31.046Z,92.44
2023-04-12T00:36:57.871Z,94.55
2023-04-12T00:39:24.907Z,97.51
2023-04-12T00:41:51.799Z,99.18
2023-04-12T00:44:18.711Z,100.00
2023-04-12T00:46:47.043Z,100.00
2023-04-12T00:49:15.471Z,100.00
2023-04-12T00:51:42.408Z,100.00
2023-04-12T00:54:09.511Z,100.00
2023-04-12T00:56:38.320Z,100.00
2023-04-12T00:59:05.428Z,100.00
2023-04-12T01:01:32.294Z,100.00
2023-04-12T01:04:01.074Z,100.00
2023-04-12T01:07:15.275Z,100.00
2023-04-12T01:09:52.011Z,100.00
2023-04-12T01:12:48.525Z,100.00
2023-04-12T01:15:18.520Z,100.00
2023-04-12T01:17:58.157Z,100.00
2023-04-12T01:20:37.371Z,100.00
2023-04-12T01:23:48.007Z,100.00
2023-04-12T01:26:37.035Z,100.00
2023-04-12T01:29:13.239Z,100.00
2023-04-12T01:31:49.431Z,100.00
2023-04-12T01:34:18.404Z,100.00
2023-04-12T01:36:48.389Z,100.00
2023-04-12T01:39:15.631Z,100.00
2023-04-12T01:41:45.490Z,100.00
2023-04-12T01:44:16.919Z,100.00
2023-04-12T01:46:47.374Z,100.00
2023-04-12T01:49:17.580Z,100.00
2023-04-12T01:52:01.681Z,100.00
2023-04-12T01:54:34.289Z,100.00
2023-04-12T01:57:04.302Z,100.00
2023-04-12T01:59:39.259Z,100.00
2023-04-12T02:02:07.633Z,100.00
2023-04-12T02:04:37.139Z,100.00
2023-04-12T02:07:04.282Z,100.00
2023-04-12T02:09:36.548Z,100.00
2023-04-12T02:12:03.569Z,100.00
2023-04-12T02:14:31.430Z,100.00
2023-04-12T02:16:58.589Z,100.00
2023-04-12T02:19:25.529Z,100.00
2023-04-12T02:21:52.290Z,100.00
2023-04-12T02:24:19.395Z,100.00
2023-04-12T02:26:46.550Z,100.00
2023-04-12T02:29:13.469Z,100.00
2023-04-12T02:31:41.584Z,100.00
2023-04-12T02:34:08.442Z,100.00
2023-04-12T02:36:37.548Z,100.00
2023-04-12T02:39:04.968Z,100.00
2023-04-12T02:41:33.292Z,100.00
2023-04-12T02:44:00.057Z,100.00
2023-04-12T02:46:29.981Z,100.00
2023-04-12T02:48:57.065Z,100.00
2023-04-12T02:51:25.236Z,100.00
2023-04-12T02:53:52.980Z,100.00
2023-04-12T02:56:21.685Z,100.00
2023-04-12T02:58:48.685Z,100.00
2023-04-12T03:01:16.922Z,100.00
2023-04-12T03:03:43.743Z,100.00
2023-04-12T03:06:10.773Z,100.00
2023-04-12T03:08:38.127Z,100.00
2023-04-12T03:11:05.308Z,100.00
2023-04-12T03:13:32.051Z,100.00
2023-04-12T03:16:00.101Z,100.00
2023-04-12T03:18:26.956Z,100.00
2023-04-12T03:20:53.787Z,100.00
2023-04-12T03:23:20.748Z,100.00
2023-04-12T03:25:47.866Z,100.00
2023-04-12T03:28:14.833Z,100.00
2023-04-12T03:30:41.644Z,100.00
2023-04-12T03:33:08.619Z,100.00
2023-04-12T03:35:35.594Z,100.00
2023-04-12T03:38:02.480Z,100.00
2023-04-12T03:40:29.288Z,100.00
2023-04-12T03:42:56.078Z,100.00
2023-04-12T03:45:22.857Z,100.00
2023-04-12T03:47:49.772Z,100.00
2023-04-12T03:50:17.114Z,100.00
2023-04-12T03:52:43.935Z,100.00
2023-04-12T03:55:11.928Z,100.00
2023-04-12T03:57:38.992Z,100.00
2023-04-12T04:00:08.648Z,100.00
2023-04-12T04:02:36.680Z,100.00
2023-04-12T04:05:04.997Z,100.00
2023-04-12T04:07:32.020Z,100.00
2023-04-12T04:09:59.883Z,100.00
2023-04-12T04:12:27.970Z,100.00
2023-04-12T04:14:54.783Z,100.00
2023-04-12T04:17:21.849Z,100.00
2023-04-12T04:19:49.681Z,100.00
2023-04-12T04:22:17.847Z,100.00
2023-04-12T04:24:44.675Z,100.00
2023-04-12T04:27:11.489Z,100.00
2023-04-12T04:29:44.558Z,100.00
2023-04-12T04:32:12.689Z,100.00
2023-04-12T04:34:40.078Z,100.00
2023-04-12T04:37:07.265Z,100.00
2023-04-12T04:39:34.019Z,100.00
2023-04-12T04:42:00.946Z,100.00
2023-04-12T04:44:27.751Z,100.00
2023-04-12T04:46:54.539Z,100.00
2023-04-12T04:49:21.368Z,100.00
2023-04-12T04:51:48.464Z,100.00
2023-04-12T04:54:16.641Z,100.00
2023-04-12T04:56:43.453Z,100.00
2023-04-12T04:59:10.280Z,100.00
2023-04-12T05:01:37.473Z,100.00
2023-04-12T05:04:04.615Z,100.00
2023-04-12T05:06:31.800Z,100.00
2023-04-12T05:08:58.841Z,100.00
2023-04-12T05:11:25.980Z,100.00
2023-04-12T05:13:53.318Z,100.00
2023-04-12T05:16:20.259Z,100.00
2023-04-12T05:18:47.134Z,100.00
2023-04-12T05:21:13.904Z,100.00
2023-04-12T05:23:47.276Z,100.00
2023-04-12T05:26:14.116Z,100.00
2023-04-12T05:28:41.183Z,100.00
2023-04-12T05:31:08.507Z,100.00
2023-04-12T05:33:36.692Z,100.00
2023-04-12T05:36:04.532Z,100.00
2023-04-12T05:38:31.683Z,100.00
2023-04-12T05:40:58.461Z,100.00
2023-04-12T05:43:25.371Z,100.00
2023-04-12T05:45:52.209Z,100.00
2023-04-12T05:48:19.206Z,100.00
2023-04-12T05:50:53.956Z,100.00
2023-04-12T05:53:22.240Z,100.00
2023-04-12T05:55:49.058Z,100.00
2023-04-12T05:58:15.915Z,100.00
2023-04-12T06:00:42.932Z,100.00
2023-04-12T06:03:11.427Z,100.00
2023-04-12T06:05:39.388Z,100.00
2023-04-12T06:08:06.687Z,100.00
2023-04-12T06:10:33.764Z,100.00
2023-04-12T06:13:01.958Z,100.00
2023-04-12T06:15:31.772Z,100.00
2023-04-12T06:17:59.580Z,100.00
2023-04-12T06:20:26.594Z,100.00
2023-04-12T06:22:53.541Z,100.00
2023-04-12T06:25:21.299Z,100.00
2023-04-12T06:27:48.036Z,100.00
2023-04-12T06:30:15.157Z,100.00
2023-04-12T06:32:42.365Z,100.00
2023-04-12T06:35:09.466Z,100.00
2023-04-12T06:37:36.324Z,100.00
2023-04-12T06:40:03.211Z,100.00
2023-04-12T06:42:30.260Z,100.00
2023-04-12T06:44:57.077Z,100.00
2023-04-12T06:47:25.456Z,100.00
2023-04-12T06:49:56.146Z,100.00
2023-04-12T06:52:26.716Z,100.00
2023-04-12T06:54:55.989Z,100.00
2023-04-12T06:57:22.761Z,100.00
2023-04-12T06:59:49.645Z,100.00
2023-04-12T07:02:16.586Z,100.00
2023-04-12T07:04:43.436Z,100.00
2023-04-12T07:07:10.494Z,100.00
2023-04-12T07:09:37.372Z,100.00
2023-04-12T07:12:04.532Z,100.00
2023-04-12T07:14:36.668Z,100.00
2023-04-12T07:17:03.500Z,100.00
2023-04-12T07:19:31.277Z,100.00
2023-04-12T07:21:58.668Z,100.00
2023-04-12T07:24:25.487Z,100.00
2023-04-12T07:26:55.325Z,100.00
2023-04-12T07:29:22.180Z,100.00
2023-04-12T07:31:49.014Z,100.00
2023-04-12T07:34:15.900Z,100.00
2023-04-12T07:36:44.117Z,100.00
2023-04-12T07:39:14.351Z,100.00
2023-04-12T07:41:46.244Z,100.00
2023-04-12T07:44:13.068Z,100.00
2023-04-12T07:46:41.690Z,100.00
2023-04-12T07:49:10.523Z,100.00
2023-04-12T07:51:37.644Z,100.00
2023-04-12T07:54:04.706Z,100.00
2023-04-12T07:56:35.539Z,100.00
2023-04-12T07:59:02.619Z,100.00
2023-04-12T08:01:30.278Z,100.00
2023-04-12T08:03:57.385Z,100.00
2023-04-12T08:06:25.418Z,100.00
2023-04-12T08:08:53.078Z,100.00
2023-04-12T08:11:19.914Z,100.00
2023-04-12T08:13:46.717Z,100.00
2023-04-12T08:16:13.584Z,100.00
2023-04-12T08:18:40.486Z,100.00
2023-04-12T08:21:07.410Z,100.00
2023-04-12T08:23:34.248Z,100.00
2023-04-12T08:26:03.691Z,100.00
2023-04-12T08:28:31.366Z,100.00
2023-04-12T08:30:59.237Z,100.00
2023-04-12T08:33:26.856Z,100.00
2023-04-12T08:35:54.180Z,100.00
2023-04-12T08:38:28.019Z,100.00
2023-04-12T08:41:05.856Z,100.00
2023-04-12T08:43:34.400Z,100.00
2023-04-12T08:46:01.675Z,100.00
2023-04-12T08:48:29.583Z,100.00
2023-04-12T08:50:57.720Z,100.00
2023-04-12T08:53:24.696Z,100.00
2023-04-12T08:55:51.908Z,100.00
2023-04-12T08:58:19.876Z,100.00
2023-04-12T09:00:47.993Z,100.00
2023-04-12T09:03:15.205Z,100.00
2023-04-12T09:05:42.396Z,100.00
2023-04-12T09:08:09.259Z,100.00
2023-04-12T09:10:38.360Z,100.00
2023-04-12T09:13:06.558Z,100.00
2023-04-12T09:15:36.644Z,100.00
2023-04-12T09:18:11.841Z,100.00
2023-04-12T09:20:40.182Z,100.00
2023-04-12T09:23:19.384Z,100.00
2023-04-12T09:25:48.169Z,100.00
2023-04-12T09:28:26.862Z,100.00
2023-04-12T09:31:00.134Z,100.00
2023-04-12T09:33:38.908Z,100.00
2023-04-12T09:36:14.257Z,100.00
2023-04-12T09:38:57.703Z,100.00
2023-04-12T09:41:27.105Z,100.00
2023-04-12T09:43:54.324Z,100.00
2023-04-12T09:46:22.599Z,100.00
2023-04-12T09:48:55.087Z,100.00
2023-04-12T09:51:31.297Z,100.00
2023-04-12T09:54:06.810Z,100.00
2023-04-12T09:56:36.483Z,100.00
2023-04-12T09:59:06.856Z,100.00
2023-04-12T10:01:40.098Z,100.00
2023-04-12T10:04:08.776Z,100.00
2023-04-12T10:06:41.406Z,100.00
2023-04-12T10:09:08.956Z,100.00
2023-04-12T10:11:37.482Z,100.00
2023-04-12T10:14:05.973Z,100.00
2023-04-12T10:16:34.948Z,100.00
2023-04-12T10:19:04.075Z,100.00
2023-04-12T10:21:31.824Z,100.00
2023-04-12T10:23:59.382Z,100.00
2023-04-12T10:26:26.931Z,100.00
2023-04-12T10:29:30.186Z,100.00
2023-04-12T10:32:19.364Z,100.00
2023-04-12T10:34:56.445Z,100.00
2023-04-12T10:37:59.595Z,100.00
2023-04-12T10:40:27.380Z,100.00
2023-04-12T10:43:19.729Z,100.00
2023-04-12T10:45:47.012Z,100.00
2023-04-12T10:48:50.810Z,100.00
2023-04-12T10:51:26.644Z,100.00
2023-04-12T10:54:17.024Z,100.00
2023-04-12T10:56:45.879Z,100.00
2023-04-12T10:59:14.413Z,100.00
2023-04-12T11:02:09.707Z,100.00
2023-04-12T11:04:37.177Z,99.59
2023-04-12T11:07:10.158Z,96.75
2023-04-12T11:09:37.344Z,97.42
2023-04-12T11:12:04.150Z,98.76
2023-04-12T11:14:45.997Z,95.94
2023-04-12T11:17:16.021Z,95.14
2023-04-12T11:19:51.568Z,92.77
2023-04-12T11:22:21.237Z,90.46
2023-04-12T11:24:51.657Z,86.51
2023-04-12T11:27:21.708Z,88.30
2023-04-12T11:29:55.767Z,83.18
2023-04-12T11:32:27.530Z,80.65
2023-04-12T11:34:56.995Z,78.92
2023-04-12T11:37:26.679Z,78.84
2023-04-12T11:39:58.061Z,80.67
2023-04-12T11:42:27.744Z,80.55
2023-04-12T11:44:59.790Z,81.42
2023-04-12T11:47:29.073Z,83.93
2023-04-12T11:49:58.380Z,86.61
2023-04-12T11:52:33.245Z,87.50
2023-04-12T11:55:08.566Z,87.08
2023-04-12T11:57:35.747Z,86.25
2023-04-12T12:00:06.724Z,87.97
2023-04-12T12:02:41.066Z,88.75
2023-04-12T12:05:17.050Z,87.29
2023-04-12T12:07:44.472Z,86.79
2023-04-12T12:10:14.601Z,86.18
2023-04-12T12:12:45.417Z,84.71
2023-04-12T12:15:15.535Z,85.67
2023-04-12T12:17:42.354Z,86.36
2023-04-12T12:20:22.211Z,86.42
2023-04-12T12:22:51.058Z,85.52
2023-04-12T12:25:19.187Z,85.54
2023-04-12T12:27:50.473Z,84.72
2023-04-12T12:30:20.291Z,82.48
2023-04-12T12:32:52.349Z,80.84
2023-04-12T12:35:19.573Z,81.92
2023-04-12T12:37:52.652Z,81.95
2023-04-12T12:40:29.361Z,81.47
2023-04-12T12:42:56.529Z,81.68
2023-04-12T12:45:29.327Z,83.26
2023-04-12T12:47:59.566Z,83.21
2023-04-12T12:50:32.651Z,84.54
2023-04-12T12:53:00.791Z,80.58
2023-04-12T12:55:29.710Z,81.65
2023-04-12T12:58:06.609Z,82.18
2023-04-12T13:00:34.335Z,82.24
2023-04-12T13:03:01.567Z,81.04
2023-04-12T13:05:29.167Z,79.69
2023-04-12T13:07:56.006Z,79.20
2023-04-12T13:10:23.658Z,77.73
2023-04-12T13:12:50.614Z,75.73
2023-04-12T13:15:23.185Z,75.59
2023-04-12T13:17:54.948Z,77.53
2023-04-12T13:20:25.604Z,77.50
2023-04-12T13:22:52.597Z,77.56
2023-04-12T13:25:21.362Z,76.25
2023-04-12T13:27:49.625Z,75.23
2023-04-12T13:30:17.415Z,74.67
2023-04-12T13:32:44.742Z,75.67
2023-04-12T13:35:11.973Z,76.89
2023-04-12T13:37:39.533Z,76.94
2023-04-12T13:40:07.444Z,78.13
2023-04-12T13:42:34.732Z,77.39
2023-04-12T13:45:01.555Z,79.89
2023-04-12T13:47:28.479Z,76.69
2023-04-12T13:49:55.296Z,76.18
2023-04-12T13:52:22.382Z,75.76
2023-04-12T13:54:49.289Z,76.83
2023-04-12T13:57:16.289Z,75.80
2023-04-12T13:59:43.070Z,75.17
2023-04-12T14:02:10.950Z,76.61
2023-04-12T14:04:52.664Z,75.63
2023-04-12T14:07:20.545Z,76.25
2023-04-12T14:09:48.661Z,76.42
2023-04-12T14:12:16.022Z,76.83
2023-04-12T14:14:42.818Z,76.72
2023-04-12T14:17:09.628Z,76.93
2023-04-12T14:19:36.454Z,77.24
2023-04-12T14:22:03.817Z,77.47
2023-04-12T14:24:31.401Z,77.79
2023-04-12T14:27:00.856Z,78.32
2023-04-12T14:29:27.841Z,78.85
2023-04-12T14:31:54.634Z,80.09
2023-04-12T14:34:21.623Z,80.18
2023-04-12T14:36:48.386Z,80.72
2023-04-12T14:39:16.245Z,83.08
2023-04-12T14:41:43.177Z,87.15
2023-04-12T14:44:10.046Z,93.26
2023-04-12T14:46:36.832Z,95.92
2023-04-12T14:49:03.692Z,100.00
2023-04-12T14:51:30.560Z,100.00
2023-04-12T14:53:57.995Z,100.00
2023-04-12T14:56:29.014Z,100.00
2023-04-12T14:58:57.291Z,100.00
2023-04-12T15:01:30.732Z,100.00
2023-04-12T15:03:58.220Z,100.00
2023-04-12T15:06:30.415Z,100.00
2023-04-12T15:08:57.613Z,100.00
2023-04-12T15:11:27.094Z,100.00
2023-04-12T15:13:55.080Z,100.00
2023-04-12T15:16:22.619Z,100.00
2023-04-12T15:18:51.489Z,100.00
2023-04-12T15:21:18.504Z,100.00
2023-04-12T15:23:45.408Z,100.00
2023-04-12T15:26:14.017Z,100.00
2023-04-12T15:28:43.730Z,100.00
2023-04-12T15:31:11.988Z,100.00
2023-04-12T15:33:39.013Z,100.00
2023-04-12T15:36:06.518Z,100.00
2023-04-12T15:38:42.380Z,100.00
2023-04-12T15:41:09.750Z,100.00
2023-04-12T15:43:36.904Z,100.00
2023-04-12T15:46:03.800Z,100.00
2023-04-12T15:48:30.800Z,100.00
2023-04-12T15:50:57.800Z,100.00
2023-04-12T15:53:27.329Z,100.00
2023-04-12T15:55:55.066Z,100.00
2023-04-12T15:58:27.268Z,100.00
2023-04-12T16:00:54.533Z,100.00
2023-04-12T16:03:23.478Z,100.00
2023-04-12T16:05:54.205Z,100.00
2023-04-12T16:08:22.079Z,100.00
2023-04-12T16:10:50.773Z,100.00
2023-04-12T16:13:18.407Z,100.00
2023-04-12T16:15:47.883Z,100.00
2023-04-12T16:18:14.709Z,100.00
2023-04-12T16:20:41.680Z,100.00
2023-04-12T16:23:09.123Z,100.00
2023-04-12T16:25:35.927Z,100.00
2023-04-12T16:28:03.474Z,100.00
2023-04-12T16:30:34.917Z,100.00
2023-04-12T16:33:01.954Z,100.00
2023-04-12T16:35:29.044Z,100.00
2023-04-12T16:37:56.234Z,100.00
2023-04-12T16:40:24.445Z,100.00
2023-04-12T16:42:51.554Z,100.00
2023-04-12T16:45:18.661Z,100.00
2023-04-12T16:47:47.020Z,100.00
2023-04-12T16:50:15.326Z,100.00
2023-04-12T16:52:42.531Z,100.00
2023-04-12T16:55:13.809Z,99.22
2023-04-12T16:57:42.800Z,100.00
2023-04-12T17:00:20.962Z,96.19
2023-04-12T17:02:55.449Z,94.51
2023-04-12T17:05:23.076Z,95.10
2023-04-12T17:07:53.893Z,94.89
2023-04-12T17:10:24.572Z,95.56
2023-04-12T17:12:57.884Z,94.71
2023-04-12T17:15:27.044Z,95.61
2023-04-12T17:18:04.003Z,96.43
2023-04-12T17:20:32.298Z,95.38
2023-04-12T17:22:59.463Z,95.52
2023-04-12T17:25:30.068Z,98.54
2023-04-12T17:28:01.692Z,96.14
2023-04-12T17:30:29.285Z,94.08
2023-04-12T17:32:57.534Z,95.31
2023-04-12T17:35:24.507Z,96.14
2023-04-12T17:37:51.570Z,95.17
2023-04-12T17:40:18.725Z,94.81
2023-04-12T17:42:45.727Z,95.95
2023-04-12T17:45:14.460Z,94.83
2023-04-12T17:47:42.420Z,97.23
2023-04-12T17:50:11.564Z,97.28
2023-04-12T17:52:39.349Z,98.04
2023-04-12T17:55:09.189Z,95.86
2023-04-12T17:57:36.639Z,96.20
2023-04-12T18:00:14.127Z,97.12
2023-04-12T18:02:43.349Z,97.63
2023-04-12T18:05:11.172Z,98.56
2023-04-12T18:07:40.080Z,96.54
2023-04-12T18:10:15.435Z,94.09
2023-04-12T18:12:45.028Z,97.32
2023-04-12T18:15:11.921Z,97.11
2023-04-12T18:17:39.665Z,97.11
2023-04-12T18:20:10.452Z,97.37
2023-04-12T18:22:38.767Z,100.00
2023-04-12T18:25:10.077Z,99.84
2023-04-12T18:27:37.028Z,99.71
2023-04-12T18:30:04.859Z,100.00
2023-04-12T18:32:32.077Z,100.00
2023-04-12T18:34:58.912Z,100.00
2023-04-12T18:37:27.178Z,100.00
2023-04-12T18:39:55.258Z,100.00
2023-04-12T18:42:22.289Z,100.00
2023-04-12T18:44:49.523Z,100.00
2023-04-12T18:47:16.961Z,100.00
2023-04-12T18:49:45.743Z,100.00
2023-04-12T18:52:12.586Z,100.00
2023-04-12T18:54:39.463Z,100.00
2023-04-12T18:57:06.935Z,100.00
2023-04-12T18:59:33.811Z,100.00
2023-04-12T19:02:00.645Z,100.00
2023-04-12T19:04:27.867Z,100.00
2023-04-12T19:06:56.175Z,100.00
2023-04-12T19:09:23.135Z,100.00
2023-04-12T19:11:49.974Z,100.00
2023-04-12T19:14:17.476Z,100.00
2023-04-12T19:16:44.379Z,100.00
2023-04-12T19:19:11.371Z,100.00
2023-04-12T19:21:38.172Z,100.00
2023-04-12T19:24:06.076Z,100.00
2023-04-12T19:26:36.573Z,100.00
2023-04-12T19:29:03.376Z,100.00
2023-04-12T19:31:30.144Z,100.00
2023-04-12T19:33:57.348Z,100.00
2023-04-12T19:36:24.504Z,100.00
2023-04-12T19:38:52.032Z,100.00
2023-04-12T19:41:20.324Z,100.00
2023-04-12T19:43:47.689Z,100.00
2023-04-12T19:46:15.109Z,100.00
2023-04-12T19:48:42.859Z,100.00
2023-04-12T19:51:09.876Z,100.00
2023-04-12T19:53:37.304Z,100.00
2023-04-12T19:56:04.783Z,100.00
2023-04-12T19:58:32.078Z,100.00
2023-04-12T20:01:02.807Z,100.00
2023-04-12T20:03:30.336Z,100.00
2023-04-12T20:06:03.976Z,100.00
2023-04-12T20:08:31.658Z,100.00
2023-04-12T20:10:59.112Z,100.00
2023-04-12T20:13:27.137Z,100.00
2023-04-12T20:15:54.388Z,100.00
2023-04-12T20:18:21.696Z,100.00
2023-04-12T20:20:49.494Z,100.00
2023-04-12T20:23:17.008Z,100.00
2023-04-12T20:25:45.491Z,100.00
2023-04-12T20:28:13.473Z,100.00
2023-04-12T20:30:41.038Z,100.00
2023-04-12T20:33:08.673Z,100.00
2023-04-12T20:35:35.819Z,100.00
2023-04-12T20:38:02.766Z,100.00
2023-04-12T20:40:30.311Z,100.00
2023-04-12T20:42:57.355Z,100.00
2023-04-12T20:45:24.746Z,100.00
2023-04-12T20:47:51.903Z,100.00
2023-04-12T20:50:22.885Z,100.00
2023-04-12T20:52:51.932Z,100.00
2023-04-12T20:55:19.170Z,100.00
2023-04-12T20:57:46.050Z,100.00
2023-04-12T21:00:18.014Z,100.00
2023-04-12T21:02:46.648Z,100.00
2023-04-12T21:05:16.898Z,100.00
2023-04-12T21:07:46.776Z,100.00
2023-04-12T21:10:14.759Z,100.00
2023-04-12T21:12:42.620Z,100.00
2023-04-12T21:15:11.708Z,100.00
2023-04-12T21:17:39.072Z,100.00
2023-04-12T21:20:13.143Z,100.00
2023-04-12T21:22:46.907Z,100.00
2023-04-12T21:25:17.043Z,100.00
2023-04-12T21:27:47.028Z,100.00
2023-04-12T21:30:14.477Z,100.00
2023-04-12T21:32:42.932Z,100.00
2023-04-12T21:35:11.190Z,100.00
2023-04-12T21:37:40.950Z,100.00
2023-04-12T21:40:12.619Z,100.00
2023-04-12T21:42:41.092Z,100.00
2023-04-12T21:45:09.560Z,100.00
2023-04-12T21:47:39.745Z,100.00
2023-04-12T21:50:08.371Z,100.00
2023-04-12T21:52:36.105Z,100.00
2023-04-12T21:55:04.928Z,100.00
2023-04-12T21:57:33.704Z,100.00
2023-04-12T22:00:01.814Z,100.00
2023-04-12T22:02:28.741Z,100.00
2023-04-12T22:04:55.569Z,100.00
2023-04-12T22:07:22.693Z,100.00
2023-04-12T22:09:53.576Z,100.00
2023-04-12T22:12:22.871Z,100.00
2023-04-12T22:14:49.859Z,100.00
2023-04-12T22:17:18.739Z,100.00
2023-04-12T22:19:46.217Z,100.00
2023-04-12T22:22:15.505Z,100.00
2023-04-12T22:24:42.955Z,100.00
2023-04-12T22:27:09.726Z,100.00
2023-04-12T22:29:37.549Z,100.00
2023-04-12T22:32:04.735Z,100.00
2023-04-12T22:34:32.312Z,100.00
2023-04-12T22:37:02.702Z,100.00
2023-04-12T22:39:31.578Z,100.00
2023-04-12T22:41:59.376Z,100.00
2023-04-12T22:44:29.049Z,100.00
2023-04-12T22:46:56.733Z,100.00
2023-04-12T22:49:31.097Z,100.00
2023-04-12T22:51:58.701Z,100.00
2023-04-12T22:54:26.092Z,100.00
2023-04-12T22:56:55.209Z,100.00
2023-04-12T22:59:23.858Z,100.00
2023-04-12T23:01:50.686Z,100.00
2023-04-12T23:04:18.380Z,100.00
2023-04-12T23:06:45.487Z,100.00
2023-04-12T23:09:13.173Z,98.38
2023-04-12T23:11:40.874Z,100.00
2023-04-12T23:14:09.714Z,100.00
2023-04-12T23:16:44.227Z,100.00
2023-04-12T23:19:16.561Z,98.87
2023-04-12T23:21:43.986Z,99.48
2023-04-12T23:24:12.050Z,100.00
2023-04-12T23:26:39.369Z,100.00
2023-04-12T23:29:06.283Z,100.00
2023-04-12T23:31:36.446Z,100.00
2023-04-12T23:34:05.742Z,100.00
2023-04-12T23:36:33.487Z,100.00
2023-04-12T23:39:01.377Z,100.00
2023-04-12T23:41:31.449Z,100.00
2023-04-12T23:43:59.343Z,99.50
2023-04-12T23:46:26.645Z,99.55
2023-04-12T23:48:53.485Z,100.00
2023-04-12T23:51:20.383Z,100.00
2023-04-12T23:53:47.519Z,93.39
2023-04-12T23:56:14.409Z,87.15
2023-04-12T23:58:41.630Z,85.82
